Airfield :







YOU CAN JOIN US ON...

 
LOGIN :

Register | Disclaimer

   EN    FR    IT 

 









Legend :    VFR   Marginal VFR   IFR   Intensive IFR   Very Intensive IFR
Visi :
Ceiling :
>= 8 km
>= 3000ft
5 to 8 km
1000 to 3000 ft
1500m to 5 km
500 to 1000 ft
800 to 1500m
200 to 500 ft
< 800m
< 200 ft
Symbols :   Thunderstorms  Fog  Heavy snow  Heavy precipitations  Wind > 20 kt






- Airport Elevation : 787 ft
- IATA code : RUT


KRUT - Rutland - Southern Vermont Regional

CURRENT METAR :
  • 221056Z AUTO 20006KT 10SM BKN020 OVC065 14/13 A2972 RMK AO2 SLP059 T01440133 PNO $

EXPIRED METARs :
  • 220956Z AUTO 11004KT 10SM OVC022 13/13 A2971 RMK AO2 RAB0858E22 SLP052 T01330133 PNO $
  • 220908Z AUTO 14004KT 8SM -RA BKN024 BKN029 OVC035 13/13 A2969 RMK AO2 RAB0858 PNO $
  • 220856Z AUTO 00000KT 6SM BR SCT024 BKN030 OVC040 13/13 A2969 RMK AO2 RAE48 SLP049 6//// T01280128 56008 PNO $

TAF KRUT
Valid from the 22 at 12:00 until the 23 at 12:00 UTC


221135Z 2212/2312 22008KT P6SM BKN027
FM221900 28006KT P6SM BKN035
FM222200 32005KT P6SM OVC035
KZBW FIR / North America



MET'MAP, your aeronautical weather chart ! - Copyright ORBIFLY December 2007 - Disclaimer

ORBIFLY MET'MAP TEAM :

Programming & Development : Alexandra Zaïnal
Concept & original design : Baudouin d'Aumeries
Assistance for programming : Marc-Olivier Méhu
Technical & hardware support : Manuel Goepfert

Contact : metmap@orbifly.com




SOURCES & CREDITS :

   NOAA